Skyland, North Carolina
Current Conditions -  °F | °C
As of 2:54 PM on Saturday 25 Oct 2014 (Local Time) from KAVL Reporting Station
Clear Clear  
Wind Chill: 70°   Ceiling: Unl
Heat Index: 70°   Visibility: 10mi
Dew Point: 35°   Wind: 7mph
Humidity: 28%   Direction: NA
Pressure: 30.02"   Gusts: NA
Location:  35.49°N, 82.52°W
Report Text: KAVL 251854Z VRB06KT 10SM CLR 21/02 A3002 RMK AO2 SLP152 T02110017
Loading
Personal Weather Stations






























Interactive Weather Map
Tropical Storm Tracking
New forecast layout! Learn more

10-Day Weather Forecast

Advertisements
Track Severe Weather on mobile